createdAt,value
2019-05-05T00:00:56.117Z,84.72
2019-05-05T00:06:05.188Z,85.09
2019-05-05T00:11:15.408Z,86.08
2019-05-05T00:16:36.785Z,85.35
2019-05-05T00:21:41.198Z,88.33
2019-05-05T00:26:46.121Z,87.37
2019-05-05T00:31:50.589Z,88.39
2019-05-05T00:36:55.360Z,87.22
2019-05-05T00:41:59.860Z,86.41
2019-05-05T00:47:24.622Z,85.98
2019-05-05T00:52:28.824Z,86.54
2019-05-05T00:57:34.797Z,87.24
2019-05-05T01:02:40.982Z,86.54
2019-05-05T01:07:45.328Z,87.36
2019-05-05T01:12:49.702Z,85.44
2019-05-05T01:17:55.299Z,85.23
2019-05-05T01:23:00.804Z,86.64
2019-05-05T01:28:05.277Z,86.10
2019-05-05T01:33:14.572Z,87.24
2019-05-05T01:38:20.635Z,86.24
2019-05-05T01:43:25.389Z,84.83
2019-05-05T01:48:29.848Z,86.64
2019-05-05T01:53:35.018Z,86.05
2019-05-05T01:58:39.491Z,85.75
2019-05-05T02:03:44.335Z,87.88
2019-05-05T02:08:48.791Z,88.47
2019-05-05T02:13:54.607Z,86.76
2019-05-05T02:18:59.083Z,85.93
2019-05-05T02:24:05.248Z,85.77
2019-05-05T02:29:17.716Z,86.87
2019-05-05T02:34:22.059Z,85.34
2019-05-05T02:39:26.439Z,85.51
2019-05-05T02:44:34.592Z,84.25
2019-05-05T02:49:38.158Z,83.75
2019-05-05T02:54:44.200Z,83.89
2019-05-05T02:59:56.451Z,83.80
2019-05-05T03:05:01.195Z,84.89
2019-05-05T03:10:07.648Z,84.60
2019-05-05T03:15:15.185Z,85.20
2019-05-05T03:20:20.239Z,85.48
2019-05-05T03:25:24.942Z,85.83
2019-05-05T03:30:29.446Z,85.23
2019-05-05T03:35:34.593Z,85.73
2019-05-05T03:40:43.651Z,85.95
2019-05-05T03:45:55.648Z,86.28
2019-05-05T03:51:01.069Z,85.36
2019-05-05T03:56:05.422Z,85.24
2019-05-05T04:01:32.121Z,84.76
2019-05-05T04:06:38.111Z,84.89
2019-05-05T04:11:44.371Z,84.15
2019-05-05T04:16:57.219Z,83.89
2019-05-05T04:22:04.202Z,81.86
2019-05-05T04:27:08.820Z,81.54
2019-05-05T04:32:14.057Z,80.71
2019-05-05T04:37:18.713Z,81.05
2019-05-05T04:42:24.558Z,82.60
2019-05-05T04:47:46.852Z,81.10
2019-05-05T04:52:54.039Z,79.35
2019-05-05T04:57:58.386Z,79.63
2019-05-05T05:03:04.617Z,78.06
2019-05-05T05:08:09.000Z,77.43
2019-05-05T05:13:13.850Z,78.21
2019-05-05T05:18:18.655Z,78.00
2019-05-05T05:23:24.631Z,79.00
2019-05-05T05:28:29.305Z,77.50
2019-05-05T05:33:34.429Z,76.25
2019-05-05T05:38:43.736Z,76.62
2019-05-05T05:44:03.595Z,76.59
2019-05-05T05:49:13.613Z,75.97
2019-05-05T05:54:18.043Z,73.74
2019-05-05T05:59:24.543Z,71.92
2019-05-05T06:04:28.475Z,71.20
2019-05-05T06:09:34.483Z,70.13
2019-05-05T06:14:39.312Z,70.65
2019-05-05T06:19:44.617Z,69.32
2019-05-05T06:24:49.133Z,68.59
2019-05-05T06:29:54.260Z,67.34
2019-05-05T06:34:59.222Z,67.22
2019-05-05T06:40:06.146Z,66.26
2019-05-05T06:45:21.221Z,66.28
2019-05-05T06:50:25.592Z,67.29
2019-05-05T06:55:30.044Z,66.51
2019-05-05T07:00:34.768Z,63.40
2019-05-05T07:05:39.251Z,65.21
2019-05-05T07:10:44.409Z,66.75
2019-05-05T07:15:50.077Z,65.33
2019-05-05T07:20:54.638Z,65.30
2019-05-05T07:25:59.048Z,65.04
2019-05-05T07:31:04.357Z,67.09
2019-05-05T07:36:16.409Z,67.30
2019-05-05T07:41:23.406Z,69.34
2019-05-05T07:46:27.426Z,68.29
2019-05-05T07:51:33.592Z,67.52
2019-05-05T07:56:38.176Z,68.01
2019-05-05T08:01:44.311Z,66.81
2019-05-05T08:06:48.563Z,67.46
2019-05-05T08:11:54.164Z,67.33
2019-05-05T08:17:00.399Z,65.82
2019-05-05T08:22:05.087Z,66.22
2019-05-05T08:27:14.425Z,63.76
2019-05-05T08:32:23.827Z,59.35
2019-05-05T08:37:28.543Z,57.87
2019-05-05T08:42:33.933Z,62.63
2019-05-05T08:47:38.447Z,59.08
2019-05-05T08:52:44.453Z,55.60
2019-05-05T08:57:49.203Z,54.20
2019-05-05T09:02:54.342Z,56.07
2019-05-05T09:07:58.847Z,55.48
2019-05-05T09:13:03.961Z,54.43
2019-05-05T09:18:09.289Z,55.37
2019-05-05T09:23:14.724Z,53.98
2019-05-05T09:28:24.623Z,52.03
2019-05-05T09:33:29.120Z,51.73
2019-05-05T09:38:34.714Z,51.95
2019-05-05T09:43:39.368Z,52.66
2019-05-05T09:48:44.148Z,48.95
2019-05-05T09:53:48.622Z,48.43
2019-05-05T09:58:54.497Z,50.56
2019-05-05T10:04:13.869Z,50.06
2019-05-05T10:09:18.293Z,47.34
2019-05-05T10:14:22.651Z,48.03
2019-05-05T10:19:28.773Z,48.62
2019-05-05T10:24:40.750Z,49.74
2019-05-05T10:29:45.762Z,48.34
2019-05-05T10:34:53.534Z,48.50
2019-05-05T10:40:03.641Z,48.46
2019-05-05T10:45:10.674Z,49.15
2019-05-05T10:50:17.040Z,49.14
2019-05-05T10:55:24.091Z,48.45
2019-05-05T11:00:41.020Z,47.65
2019-05-05T11:05:48.810Z,47.89
2019-05-05T11:10:57.964Z,48.93
2019-05-05T11:16:04.354Z,48.43
2019-05-05T11:21:08.907Z,50.06
2019-05-05T11:26:14.369Z,49.14
2019-05-05T11:31:19.449Z,45.47
2019-05-05T11:36:41.523Z,44.07
2019-05-05T11:41:45.979Z,45.42
2019-05-05T11:46:50.620Z,47.30
2019-05-05T11:51:55.017Z,47.13
2019-05-05T11:57:00.647Z,46.85
2019-05-05T12:02:06.023Z,46.70
2019-05-05T12:07:11.286Z,44.09
2019-05-05T12:12:16.276Z,44.57
2019-05-05T12:17:36.640Z,45.44
2019-05-05T12:22:41.171Z,46.76
2019-05-05T12:28:04.379Z,45.65
2019-05-05T12:33:09.319Z,44.93
2019-05-05T12:38:13.728Z,45.75
2019-05-05T12:43:18.153Z,44.41
2019-05-05T12:48:24.238Z,43.09
2019-05-05T12:53:28.604Z,42.38
2019-05-05T12:58:33.588Z,41.84
2019-05-05T13:03:40.549Z,40.86
2019-05-05T13:08:44.976Z,42.98
2019-05-05T13:13:49.375Z,45.41
2019-05-05T13:18:54.010Z,45.26
2019-05-05T13:24:09.411Z,48.07
2019-05-05T13:29:14.022Z,48.56
2019-05-05T13:34:19.622Z,49.50
2019-05-05T13:39:24.879Z,50.32
2019-05-05T13:44:49.984Z,49.92
2019-05-05T13:49:56.023Z,50.17
2019-05-05T13:55:00.432Z,48.26
2019-05-05T14:00:06.645Z,47.33
2019-05-05T14:05:13.286Z,46.50
2019-05-05T14:10:19.674Z,45.96
2019-05-05T14:15:24.422Z,42.75
2019-05-05T14:20:28.885Z,41.85
2019-05-05T14:25:33.407Z,40.34
2019-05-05T14:30:56.015Z,41.50
2019-05-05T14:36:04.993Z,43.10
2019-05-05T14:41:09.491Z,46.30
2019-05-05T14:46:14.482Z,46.66
2019-05-05T14:51:19.091Z,47.65
2019-05-05T14:56:35.782Z,47.10
2019-05-05T15:01:29.585Z,47.07
2019-05-05T15:06:44.486Z,47.44
2019-05-05T15:12:06.935Z,48.18
2019-05-05T15:17:11.396Z,46.88
2019-05-05T15:22:15.832Z,45.99
2019-05-05T15:27:20.247Z,47.57
2019-05-05T15:32:24.737Z,47.31
2019-05-05T15:37:29.091Z,45.69
2019-05-05T15:42:33.590Z,46.26
2019-05-05T15:47:37.957Z,46.82
2019-05-05T15:52:44.041Z,47.55
2019-05-05T15:57:48.863Z,45.84
2019-05-05T16:02:54.847Z,45.82
2019-05-05T16:08:00.309Z,46.98
2019-05-05T16:13:04.925Z,46.00
2019-05-05T16:18:13.792Z,45.79
2019-05-05T16:23:25.602Z,45.26
2019-05-05T16:28:29.963Z,45.18
2019-05-05T16:33:34.377Z,45.55
2019-05-05T16:38:38.680Z,45.20
2019-05-05T16:43:44.219Z,43.03
2019-05-05T16:48:48.767Z,43.02
2019-05-05T16:53:53.887Z,43.31
2019-05-05T16:58:59.219Z,40.97
2019-05-05T17:04:11.225Z,41.25
2019-05-05T17:09:09.718Z,43.01
2019-05-05T17:14:23.462Z,42.28
2019-05-05T17:19:29.591Z,42.82
2019-05-05T17:24:34.451Z,43.93
2019-05-05T17:29:38.957Z,42.85
2019-05-05T17:34:44.875Z,43.50
2019-05-05T17:39:51.204Z,44.32
2019-05-05T17:45:03.791Z,43.96
2019-05-05T17:50:11.801Z,43.87
2019-05-05T17:55:29.717Z,44.49
2019-05-05T18:00:35.738Z,45.32
2019-05-05T18:05:59.090Z,45.22
2019-05-05T18:11:05.071Z,45.22
2019-05-05T18:16:09.560Z,46.28
2019-05-05T18:21:14.319Z,47.46
2019-05-05T18:26:18.741Z,48.51
2019-05-05T18:31:24.299Z,48.53
2019-05-05T18:36:29.526Z,49.86
2019-05-05T18:41:35.609Z,49.24
2019-05-05T18:46:40.098Z,50.24
2019-05-05T18:51:45.284Z,50.28
2019-05-05T18:56:49.784Z,50.93
2019-05-05T19:02:07.781Z,51.61
2019-05-05T19:07:14.948Z,52.27
2019-05-05T19:12:19.376Z,53.03
2019-05-05T19:17:23.938Z,53.59
2019-05-05T19:22:29.326Z,54.15
2019-05-05T19:27:33.732Z,54.20
2019-05-05T19:32:38.092Z,54.45
2019-05-05T19:37:44.431Z,56.59
2019-05-05T19:42:48.578Z,56.84
2019-05-05T19:47:53.009Z,55.16
2019-05-05T19:52:57.390Z,56.27
2019-05-05T19:58:03.540Z,56.29
2019-05-05T20:03:07.905Z,56.94
2019-05-05T20:08:14.504Z,57.18
2019-05-05T20:13:18.351Z,57.37
2019-05-05T20:18:24.890Z,57.95
2019-05-05T20:23:29.484Z,56.70
2019-05-05T20:28:33.990Z,56.74
2019-05-05T20:33:40.026Z,57.21
2019-05-05T20:38:49.063Z,56.66
2019-05-05T20:43:54.212Z,56.44
2019-05-05T20:48:58.845Z,57.35
2019-05-05T20:54:04.778Z,57.61
2019-05-05T20:59:09.426Z,57.42
2019-05-05T21:04:14.156Z,58.23
2019-05-05T21:09:18.515Z,57.65
2019-05-05T21:14:33.670Z,57.52
2019-05-05T21:19:29.101Z,57.88
2019-05-05T21:24:33.555Z,59.30
2019-05-05T21:29:42.182Z,62.65
2019-05-05T21:34:45.018Z,62.65
2019-05-05T21:39:49.497Z,60.98
2019-05-05T21:44:57.404Z,64.19
2019-05-05T21:50:03.736Z,66.43
2019-05-05T21:55:10.071Z,67.58
2019-05-05T22:00:34.632Z,68.61
2019-05-05T22:05:41.420Z,70.31
2019-05-05T22:10:45.829Z,70.59
2019-05-05T22:15:50.165Z,69.96
2019-05-05T22:21:14.097Z,70.11
2019-05-05T22:26:18.702Z,70.81
2019-05-05T22:31:23.825Z,71.92
2019-05-05T22:36:28.268Z,71.66
2019-05-05T22:41:33.773Z,71.83
2019-05-05T22:46:38.378Z,72.22
2019-05-05T22:51:44.715Z,71.89
2019-05-05T22:56:48.791Z,73.02
2019-05-05T23:01:54.164Z,74.03
2019-05-05T23:07:00.295Z,73.90
2019-05-05T23:12:04.818Z,73.99
2019-05-05T23:17:10.820Z,75.03
2019-05-05T23:22:24.079Z,74.95
2019-05-05T23:27:48.925Z,75.12
2019-05-05T23:32:54.809Z,76.01
2019-05-05T23:37:59.377Z,75.33
2019-05-05T23:43:04.486Z,75.55
2019-05-05T23:48:09.441Z,76.52
2019-05-05T23:53:13.923Z,75.79
2019-05-05T23:58:18.314Z,76.74
